createdAt,value
2023-03-11T00:00:39.484Z,98327.25
2023-03-11T00:03:08.417Z,98349.94
2023-03-11T00:05:38.661Z,98339.69
2023-03-11T00:08:08.133Z,98332.56
2023-03-11T00:10:38.970Z,98331.94
2023-03-11T00:13:07.875Z,98351.34
2023-03-11T00:15:35.427Z,98339.25
2023-03-11T00:18:02.559Z,98360.13
2023-03-11T00:20:32.620Z,98376.06
2023-03-11T00:22:59.832Z,98360.50
2023-03-11T00:25:28.470Z,98383.00
2023-03-11T00:27:55.533Z,98377.81
2023-03-11T00:30:23.678Z,98398.41
2023-03-11T00:32:52.633Z,98379.00
2023-03-11T00:35:25.643Z,98374.25
2023-03-11T00:37:55.583Z,98379.56
2023-03-11T00:40:24.625Z,98384.34
2023-03-11T00:42:51.622Z,98364.13
2023-03-11T00:45:18.992Z,98372.91
2023-03-11T00:47:46.351Z,98388.63
2023-03-11T00:50:20.421Z,98369.44
2023-03-11T00:52:50.380Z,98401.47
2023-03-11T00:55:20.981Z,98422.25
2023-03-11T00:57:47.809Z,98404.94
2023-03-11T01:00:17.548Z,98404.69
2023-03-11T01:02:44.744Z,98416.13
2023-03-11T01:05:12.126Z,98428.94
2023-03-11T01:07:38.772Z,98417.66
2023-03-11T01:10:08.703Z,98413.00
2023-03-11T01:12:36.275Z,98434.06
2023-03-11T01:15:04.952Z,98423.34
2023-03-11T01:17:31.713Z,98429.00
2023-03-11T01:19:58.729Z,98435.25
2023-03-11T01:22:25.537Z,98435.50
2023-03-11T01:24:52.248Z,98445.28
2023-03-11T01:27:19.014Z,98433.22
2023-03-11T01:29:45.686Z,98453.25
2023-03-11T01:32:12.562Z,98452.06
2023-03-11T01:34:39.337Z,98446.94
2023-03-11T01:37:06.051Z,98451.38
2023-03-11T01:39:32.981Z,98455.03
2023-03-11T01:41:59.679Z,98449.72
2023-03-11T01:44:27.018Z,98448.72
2023-03-11T01:46:53.908Z,98450.16
2023-03-11T01:49:22.340Z,98462.88
2023-03-11T01:51:52.666Z,98466.63
2023-03-11T01:54:25.712Z,98457.50
2023-03-11T01:56:53.338Z,98450.06
2023-03-11T01:59:24.476Z,98454.56
2023-03-11T02:01:57.145Z,98451.72
2023-03-11T02:04:23.917Z,98455.09
2023-03-11T02:06:54.036Z,98466.44
2023-03-11T02:09:22.733Z,98448.03
2023-03-11T02:11:52.045Z,98456.19
2023-03-11T02:14:20.494Z,98456.00
2023-03-11T02:16:47.356Z,98459.75
2023-03-11T02:19:35.124Z,98467.06
2023-03-11T02:22:02.561Z,98453.22
2023-03-11T02:24:41.539Z,98470.16
2023-03-11T02:27:14.198Z,98475.84
2023-03-11T02:29:42.452Z,98472.44
2023-03-11T02:32:11.388Z,98491.28
2023-03-11T02:34:40.545Z,98480.50
2023-03-11T02:37:13.778Z,98486.81
2023-03-11T02:39:42.178Z,98495.41
2023-03-11T02:42:38.158Z,98493.75
2023-03-11T02:45:10.819Z,98500.97
2023-03-11T02:47:39.662Z,98503.97
2023-03-11T02:50:08.811Z,98496.69
2023-03-11T02:52:36.411Z,98510.94
2023-03-11T02:55:04.313Z,98497.78
2023-03-11T02:57:31.811Z,98500.50
2023-03-11T03:00:00.375Z,98496.84
2023-03-11T03:02:27.013Z,98503.78
2023-03-11T03:04:53.655Z,98496.00
2023-03-11T03:07:20.360Z,98504.13
2023-03-11T03:09:48.139Z,98493.34
2023-03-11T03:12:14.804Z,98504.97
2023-03-11T03:14:41.450Z,98515.75
2023-03-11T03:17:08.392Z,98518.03
2023-03-11T03:19:35.379Z,98529.34
2023-03-11T03:22:02.456Z,98547.75
2023-03-11T03:24:29.209Z,98548.56
2023-03-11T03:29:22.444Z,98546.91
2023-03-11T03:31:49.240Z,98561.25
2023-03-11T03:34:16.339Z,98560.00
2023-03-11T03:36:43.110Z,98570.94
2023-03-11T03:39:09.791Z,98570.72
2023-03-11T03:41:36.994Z,98571.44
2023-03-11T03:44:04.153Z,98578.03
2023-03-11T03:46:31.805Z,98579.22
2023-03-11T03:49:01.815Z,98578.72
2023-03-11T03:51:28.558Z,98587.03
2023-03-11T03:53:55.236Z,98584.69
2023-03-11T03:56:22.087Z,98591.16
2023-03-11T03:58:48.833Z,98597.28
2023-03-11T04:01:15.609Z,98596.28
2023-03-11T04:03:43.067Z,98608.53
2023-03-11T04:06:22.619Z,98610.69
2023-03-11T04:08:51.109Z,98617.31
2023-03-11T04:11:19.885Z,98616.81
2023-03-11T04:13:47.558Z,98617.16
2023-03-11T04:16:21.322Z,98617.81
2023-03-11T04:18:48.658Z,98610.19
2023-03-11T04:21:15.627Z,98623.28
2023-03-11T04:23:42.358Z,98618.97
2023-03-11T04:26:09.149Z,98618.63
2023-03-11T04:28:35.840Z,98615.84
2023-03-11T04:31:03.026Z,98622.50
2023-03-11T04:33:29.725Z,98617.19
2023-03-11T04:38:22.953Z,98625.16
2023-03-11T04:40:50.111Z,98621.84
2023-03-11T04:43:17.247Z,98626.69
2023-03-11T04:45:44.928Z,98633.19
2023-03-11T04:48:11.900Z,98633.81
2023-03-11T04:50:38.612Z,98628.34
2023-03-11T04:53:06.384Z,98633.00
2023-03-11T04:55:34.030Z,98629.22
2023-03-11T04:58:00.860Z,98633.69
2023-03-11T05:00:27.754Z,98635.84
2023-03-11T05:02:54.784Z,98636.53
2023-03-11T05:05:21.583Z,98647.16
2023-03-11T05:07:49.502Z,98651.63
2023-03-11T05:10:22.692Z,98653.13
2023-03-11T05:12:52.815Z,98649.81
2023-03-11T05:15:20.363Z,98655.13
2023-03-11T05:17:47.072Z,98664.78
2023-03-11T05:20:17.151Z,98670.56
2023-03-11T05:22:44.567Z,98675.69
2023-03-11T05:25:11.317Z,98684.94
2023-03-11T05:27:41.342Z,98681.28
2023-03-11T05:30:11.870Z,98682.94
2023-03-11T05:32:39.729Z,98682.59
2023-03-11T05:35:06.991Z,98679.78
2023-03-11T05:37:34.024Z,98691.88
2023-03-11T05:40:00.860Z,98686.25
2023-03-11T05:42:27.614Z,98688.91
2023-03-11T05:44:54.302Z,98697.66
2023-03-11T05:47:22.165Z,98697.00
2023-03-11T05:49:50.055Z,98699.81
2023-03-11T05:52:17.762Z,98699.13
2023-03-11T05:54:44.893Z,98712.06
2023-03-11T05:57:11.774Z,98707.09
2023-03-11T05:59:38.504Z,98706.09
2023-03-11T06:02:05.682Z,98711.53
2023-03-11T06:04:32.481Z,98720.34
2023-03-11T06:07:00.188Z,98715.63
2023-03-11T06:09:26.989Z,98726.63
2023-03-11T06:11:53.792Z,98724.38
2023-03-11T06:14:20.678Z,98735.56
2023-03-11T06:16:47.442Z,98727.38
2023-03-11T06:19:14.749Z,98725.22
2023-03-11T06:21:41.549Z,98726.25
2023-03-11T06:24:09.374Z,98741.38
2023-03-11T06:26:36.062Z,98732.25
2023-03-11T06:29:03.253Z,98743.53
2023-03-11T06:31:30.903Z,98743.84
2023-03-11T06:33:58.916Z,98749.66
2023-03-11T06:36:26.866Z,98758.06
2023-03-11T06:38:54.614Z,98767.66
2023-03-11T06:41:23.743Z,98773.28
2023-03-11T06:43:50.810Z,98768.19
2023-03-11T06:46:24.350Z,98773.59
2023-03-11T06:48:52.437Z,98772.59
2023-03-11T06:51:20.771Z,98774.06
2023-03-11T06:53:54.853Z,98776.16
2023-03-11T06:56:23.054Z,98783.97
2023-03-11T06:58:50.199Z,98787.31
2023-03-11T07:01:21.186Z,98790.72
2023-03-11T07:03:49.446Z,98781.75
2023-03-11T07:06:23.530Z,98790.03
2023-03-11T07:08:51.932Z,98792.63
2023-03-11T07:11:24.561Z,98794.25
2023-03-11T07:13:52.019Z,98794.53
2023-03-11T07:16:21.978Z,98792.84
2023-03-11T07:18:50.102Z,98804.00
2023-03-11T07:21:19.986Z,98804.81
2023-03-11T07:23:47.352Z,98815.16
2023-03-11T07:26:15.832Z,98821.53
2023-03-11T07:28:43.408Z,98808.84
2023-03-11T07:31:23.839Z,98813.69
2023-03-11T07:33:51.307Z,98815.47
2023-03-11T07:36:22.023Z,98832.16
2023-03-11T07:38:50.039Z,98830.00
2023-03-11T07:41:16.788Z,98845.44
2023-03-11T07:43:43.997Z,98844.44
2023-03-11T07:46:14.316Z,98843.66
2023-03-11T07:48:42.022Z,98853.94
2023-03-11T07:51:36.088Z,98862.22
2023-03-11T07:54:03.675Z,98862.09
2023-03-11T07:56:34.751Z,98865.00
2023-03-11T07:59:04.703Z,98869.41
2023-03-11T08:01:47.344Z,98874.50
2023-03-11T08:04:17.307Z,98877.19
2023-03-11T08:06:47.179Z,98882.78
2023-03-11T08:09:14.645Z,98885.06
2023-03-11T08:11:42.388Z,98896.09
2023-03-11T08:14:09.704Z,98902.75
2023-03-11T08:16:36.479Z,98913.69
2023-03-11T08:19:03.976Z,98908.16
2023-03-11T08:21:32.499Z,98898.81
2023-03-11T08:24:02.225Z,98904.13
2023-03-11T08:26:30.514Z,98897.84
2023-03-11T08:28:58.289Z,98899.69
2023-03-11T08:31:28.553Z,98901.41
2023-03-11T08:33:58.498Z,98896.41
2023-03-11T08:36:28.728Z,98897.59
2023-03-11T08:38:55.505Z,98911.44
2023-03-11T08:41:22.298Z,98919.72
2023-03-11T08:43:53.128Z,98919.56
2023-03-11T08:46:26.747Z,98922.00
2023-03-11T08:48:54.405Z,98912.75
2023-03-11T08:51:22.436Z,98915.91
2023-03-11T08:53:49.767Z,98924.41
2023-03-11T08:56:16.854Z,98929.25
2023-03-11T08:58:43.849Z,98932.81
2023-03-11T09:01:12.501Z,98927.63
2023-03-11T09:03:40.005Z,98931.59
2023-03-11T09:06:11.304Z,98932.69
2023-03-11T09:08:38.112Z,98935.81
2023-03-11T09:11:05.953Z,98938.59
2023-03-11T09:13:33.329Z,98929.69
2023-03-11T09:16:00.773Z,98956.63
2023-03-11T09:18:29.569Z,98945.88
2023-03-11T09:20:58.911Z,98958.63
2023-03-11T09:23:26.284Z,98950.34
2023-03-11T09:25:53.236Z,98959.38
2023-03-11T09:28:19.885Z,98950.19
2023-03-11T09:30:47.100Z,98953.41
2023-03-11T09:33:13.821Z,98964.34
2023-03-11T09:35:40.557Z,98966.16
2023-03-11T09:38:07.729Z,98974.25
2023-03-11T09:40:58.370Z,98979.66
2023-03-11T09:43:46.371Z,98967.09
2023-03-11T09:46:41.800Z,98978.22
2023-03-11T09:49:38.683Z,98972.31
2023-03-11T09:52:13.736Z,98987.41
2023-03-11T09:54:48.425Z,98974.19
2023-03-11T09:57:21.518Z,98991.25
2023-03-11T09:59:49.158Z,98989.81
2023-03-11T10:02:20.758Z,98980.31
2023-03-11T10:04:58.644Z,98988.38
2023-03-11T10:07:34.103Z,98988.94
2023-03-11T10:10:02.710Z,98987.47
2023-03-11T10:12:58.507Z,98990.09
2023-03-11T10:15:31.549Z,98991.78
2023-03-11T10:18:05.324Z,98992.66
2023-03-11T10:20:51.264Z,98996.72
2023-03-11T10:26:37.358Z,98990.03
2023-03-11T10:29:15.618Z,98991.50
2023-03-11T10:31:58.376Z,98989.78
2023-03-11T10:34:34.558Z,98993.22
2023-03-11T10:37:12.494Z,98994.72
2023-03-11T10:39:41.090Z,98999.41
2023-03-11T10:42:15.347Z,99001.31
2023-03-11T10:44:43.460Z,99003.00
2023-03-11T10:47:25.645Z,99005.09
2023-03-11T10:50:02.512Z,99006.38
2023-03-11T10:52:29.358Z,99004.81
2023-03-11T10:54:58.720Z,98999.00
2023-03-11T10:57:34.005Z,99014.72
2023-03-11T11:00:02.806Z,99011.75
2023-03-11T11:02:43.615Z,99005.66
2023-03-11T11:05:16.498Z,99007.13
2023-03-11T11:07:47.910Z,99013.34
2023-03-11T11:10:29.019Z,99002.38
2023-03-11T11:12:58.416Z,99002.81
2023-03-11T11:15:34.374Z,99011.16
2023-03-11T11:18:08.398Z,99006.03
2023-03-11T11:20:35.473Z,99009.13
2023-03-11T11:23:04.225Z,99009.91
2023-03-11T11:25:36.703Z,99002.09
2023-03-11T11:28:23.972Z,99007.41
2023-03-11T11:30:58.652Z,99002.22
2023-03-11T11:33:39.903Z,99002.88
2023-03-11T11:36:15.433Z,99003.09
2023-03-11T11:38:42.992Z,99012.50
2023-03-11T11:41:15.671Z,99009.25
2023-03-11T11:43:57.852Z,99005.84
2023-03-11T11:46:27.484Z,99004.00
2023-03-11T11:48:58.511Z,99008.41
2023-03-11T11:51:47.723Z,99009.97
2023-03-11T11:54:19.916Z,99016.47
2023-03-11T11:56:48.070Z,99018.34
2023-03-11T11:59:20.578Z,99021.28
2023-03-11T12:01:58.851Z,99017.03
2023-03-11T12:04:38.635Z,99017.94
2023-03-11T12:07:05.410Z,99011.09
2023-03-11T12:09:51.893Z,99013.09
2023-03-11T12:12:37.320Z,99018.06
2023-03-11T12:15:32.449Z,99015.38
2023-03-11T12:18:05.214Z,99020.16
2023-03-11T12:20:52.174Z,99014.00
2023-03-11T12:23:38.847Z,99024.66
2023-03-11T12:26:24.098Z,99018.50
2023-03-11T12:28:58.431Z,99014.00
2023-03-11T12:31:29.774Z,99013.19
2023-03-11T12:33:58.468Z,99017.25
2023-03-11T12:36:44.237Z,99024.75
2023-03-11T12:39:24.734Z,99026.31
2023-03-11T12:41:58.629Z,99028.28
2023-03-11T12:44:29.062Z,99016.69
2023-03-11T12:46:58.600Z,99023.47
2023-03-11T12:49:38.557Z,99022.53
2023-03-11T12:52:16.339Z,99021.75
2023-03-11T12:54:44.984Z,99012.41
2023-03-11T12:57:18.468Z,99020.81
2023-03-11T12:59:59.182Z,99016.69
2023-03-11T13:02:55.764Z,99008.00
2023-03-11T13:05:31.946Z,99009.03
2023-03-11T13:08:19.635Z,99013.53
2023-03-11T13:10:51.863Z,99015.28
2023-03-11T13:13:35.367Z,99022.03
2023-03-11T13:16:14.277Z,99018.28
2023-03-11T13:18:44.169Z,99028.81
2023-03-11T13:21:32.218Z,99023.50
2023-03-11T13:24:26.144Z,99036.50
2023-03-11T13:26:58.465Z,99034.41
2023-03-11T13:29:40.239Z,99034.13
2023-03-11T13:32:17.822Z,99036.91
2023-03-11T13:34:59.556Z,99032.31
2023-03-11T13:37:51.110Z,99033.97
2023-03-11T13:40:33.302Z,99034.56
2023-03-11T13:43:19.403Z,99033.84
2023-03-11T13:45:55.508Z,99040.59
2023-03-11T13:48:43.541Z,99046.81
2023-03-11T13:51:23.625Z,99044.16
2023-03-11T13:53:58.837Z,99045.91
2023-03-11T13:56:33.079Z,99040.69
2023-03-11T13:59:23.164Z,99046.38
2023-03-11T14:04:27.707Z,99056.91
2023-03-11T14:06:55.079Z,99066.47
2023-03-11T14:09:25.468Z,99053.94
2023-03-11T14:11:58.473Z,99062.66
2023-03-11T14:14:42.849Z,99064.22
2023-03-11T14:17:16.313Z,99071.50
2023-03-11T14:19:43.750Z,99071.03
2023-03-11T14:22:11.165Z,99072.09
2023-03-11T14:24:39.831Z,99086.44
2023-03-11T14:27:09.751Z,99092.97
2023-03-11T14:29:41.019Z,99096.06
2023-03-11T14:32:33.822Z,99088.50
2023-03-11T14:35:01.103Z,99088.47
2023-03-11T14:37:36.606Z,99084.69
2023-03-11T14:40:25.491Z,99090.34
2023-03-11T14:42:55.067Z,99084.69
2023-03-11T14:45:24.924Z,99077.69
2023-03-11T14:48:02.578Z,99075.03
2023-03-11T14:50:32.424Z,99076.59
2023-03-11T14:53:10.566Z,99087.28
2023-03-11T14:55:46.577Z,99082.38
2023-03-11T14:58:26.196Z,99072.34
2023-03-11T15:00:58.732Z,99080.81
2023-03-11T15:03:29.570Z,99071.91
2023-03-11T15:05:57.507Z,99077.97
2023-03-11T15:08:29.985Z,99096.28
2023-03-11T15:11:00.369Z,99095.25
2023-03-11T15:13:39.742Z,99102.13
2023-03-11T15:16:22.575Z,99098.25
2023-03-11T15:18:49.715Z,99095.66
2023-03-11T15:21:19.699Z,99092.13
2023-03-11T15:23:52.238Z,99088.97
2023-03-11T15:26:28.865Z,99084.00
2023-03-11T15:28:59.318Z,99086.41
2023-03-11T15:31:32.816Z,99079.31
2023-03-11T15:34:19.500Z,99078.03
2023-03-11T15:36:49.056Z,99069.09
2023-03-11T15:39:19.763Z,99067.06
2023-03-11T15:41:58.507Z,99067.03
2023-03-11T15:44:29.432Z,99062.88
2023-03-11T15:49:25.929Z,99069.56
2023-03-11T15:51:52.916Z,99071.22
2023-03-11T15:54:20.491Z,99084.25
2023-03-11T15:56:48.487Z,99080.31
2023-03-11T15:59:17.671Z,99084.66
2023-03-11T16:01:45.000Z,99093.94
2023-03-11T16:04:17.770Z,99087.25
2023-03-11T16:06:49.529Z,99095.56
2023-03-11T16:09:21.887Z,99109.16
2023-03-11T16:11:49.727Z,99106.22
2023-03-11T16:14:19.282Z,99102.66
2023-03-11T16:16:49.210Z,99106.31
2023-03-11T16:19:16.079Z,99108.09
2023-03-11T16:21:47.311Z,99109.25
2023-03-11T16:24:22.940Z,99111.25
2023-03-11T16:26:52.536Z,99128.31
2023-03-11T16:29:20.957Z,99130.00
2023-03-11T16:31:49.638Z,99120.13
2023-03-11T16:34:18.017Z,99123.09
2023-03-11T16:36:45.255Z,99131.78
2023-03-11T16:39:12.082Z,99143.41
2023-03-11T16:41:45.592Z,99149.50
2023-03-11T16:44:13.021Z,99152.03
2023-03-11T16:46:40.031Z,99161.25
2023-03-11T16:49:06.997Z,99152.97
2023-03-11T16:51:34.021Z,99160.25
2023-03-11T16:54:01.304Z,99155.75
2023-03-11T16:56:28.231Z,99158.94
2023-03-11T16:58:55.446Z,99158.38
2023-03-11T17:01:22.680Z,99157.13
2023-03-11T17:03:51.239Z,99164.47
2023-03-11T17:06:19.332Z,99166.13
2023-03-11T17:08:49.436Z,99179.47
2023-03-11T17:11:19.255Z,99177.91
2023-03-11T17:13:46.999Z,99174.38
2023-03-11T17:16:14.724Z,99183.81
2023-03-11T17:18:42.051Z,99188.75
2023-03-11T17:21:10.972Z,99187.78
2023-03-11T17:23:37.745Z,99178.53
2023-03-11T17:26:16.843Z,99191.81
2023-03-11T17:28:44.110Z,99190.88
2023-03-11T17:31:13.534Z,99188.06
2023-03-11T17:33:41.131Z,99201.06
2023-03-11T17:36:10.167Z,99195.91
2023-03-11T17:38:37.457Z,99193.31
2023-03-11T17:41:12.991Z,99201.78
2023-03-11T17:43:41.742Z,99200.28
2023-03-11T17:46:17.033Z,99193.31
2023-03-11T17:48:48.457Z,99209.97
2023-03-11T17:51:21.360Z,99211.78
2023-03-11T17:53:49.545Z,99217.91
2023-03-11T17:56:19.029Z,99213.59
2023-03-11T17:58:45.938Z,99219.06
2023-03-11T18:01:16.527Z,99230.53
2023-03-11T18:03:43.736Z,99220.56
2023-03-11T18:06:11.705Z,99227.88
2023-03-11T18:08:39.467Z,99231.50
2023-03-11T18:11:09.978Z,99235.13
2023-03-11T18:13:37.739Z,99235.78
2023-03-11T18:16:09.926Z,99238.44
2023-03-11T18:18:38.304Z,99244.41
2023-03-11T18:21:07.500Z,99245.16
2023-03-11T18:23:35.416Z,99246.31
2023-03-11T18:26:04.807Z,99251.28
2023-03-11T18:28:36.120Z,99247.56
2023-03-11T18:31:18.424Z,99248.84
2023-03-11T18:33:57.580Z,99247.81
2023-03-11T18:36:28.030Z,99247.81
2023-03-11T18:41:24.745Z,99252.59
2023-03-11T18:46:26.835Z,99255.97
2023-03-11T18:48:55.084Z,99254.38
2023-03-11T18:51:21.861Z,99253.78
2023-03-11T18:53:48.876Z,99261.50
2023-03-11T18:56:17.494Z,99264.41
2023-03-11T18:58:44.593Z,99263.41
2023-03-11T19:01:19.794Z,99266.81
2023-03-11T19:03:55.335Z,99269.25
2023-03-11T19:06:23.398Z,99270.31
2023-03-11T19:08:51.116Z,99266.25
2023-03-11T19:11:21.245Z,99261.88
2023-03-11T19:13:48.383Z,99267.38
2023-03-11T19:16:18.370Z,99271.84
2023-03-11T19:18:46.421Z,99273.53
2023-03-11T19:21:14.503Z,99271.63
2023-03-11T19:23:41.247Z,99280.38
2023-03-11T19:26:08.204Z,99282.06
2023-03-11T19:28:35.609Z,99279.63
2023-03-11T19:31:04.804Z,99276.63
2023-03-11T19:33:31.610Z,99286.81
2023-03-11T19:36:03.772Z,99287.47
2023-03-11T19:38:30.887Z,99290.28
2023-03-11T19:40:57.607Z,99292.09
2023-03-11T19:43:24.872Z,99289.66
2023-03-11T19:45:52.433Z,99292.31
2023-03-11T19:48:20.338Z,99295.25
2023-03-11T19:50:54.541Z,99300.16
2023-03-11T19:53:22.617Z,99296.00
2023-03-11T19:55:52.294Z,99301.09
2023-03-11T19:58:20.310Z,99303.50
2023-03-11T20:00:47.340Z,99303.16
2023-03-11T20:03:15.843Z,99307.75
2023-03-11T20:05:45.279Z,99310.69
2023-03-11T20:08:14.698Z,99310.75
2023-03-11T20:10:44.724Z,99303.56
2023-03-11T20:13:12.050Z,99307.22
2023-03-11T20:15:38.906Z,99299.03
2023-03-11T20:18:06.399Z,99305.16
2023-03-11T20:20:34.907Z,99307.13
2023-03-11T20:23:02.371Z,99306.44
2023-03-11T20:25:32.675Z,99301.53
2023-03-11T20:28:00.868Z,99306.91
2023-03-11T20:30:29.527Z,99308.50
2023-03-11T20:35:23.550Z,99309.13
2023-03-11T20:37:50.587Z,99315.94
2023-03-11T20:40:19.371Z,99309.47
2023-03-11T20:42:49.284Z,99315.44
2023-03-11T20:45:22.285Z,99323.47
2023-03-11T20:47:54.199Z,99319.16
2023-03-11T20:50:22.550Z,99329.06
2023-03-11T20:52:50.749Z,99324.69
2023-03-11T20:55:17.578Z,99328.84
2023-03-11T20:57:44.416Z,99334.31
2023-03-11T21:00:12.759Z,99330.19
2023-03-11T21:02:41.548Z,99329.75
2023-03-11T21:05:09.264Z,99328.47
2023-03-11T21:07:39.898Z,99341.09
2023-03-11T21:10:10.144Z,99338.16
2023-03-11T21:12:36.928Z,99342.47
2023-03-11T21:15:05.068Z,99340.91
2023-03-11T21:17:33.093Z,99351.13
2023-03-11T21:19:59.994Z,99344.59
2023-03-11T21:22:27.682Z,99339.00
2023-03-11T21:24:55.844Z,99340.59
2023-03-11T21:27:26.817Z,99331.69
2023-03-11T21:29:58.737Z,99328.38
2023-03-11T21:32:28.343Z,99342.38
2023-03-11T21:34:58.848Z,99339.03
2023-03-11T21:37:26.775Z,99341.59
2023-03-11T21:39:53.983Z,99341.09
2023-03-11T21:42:21.162Z,99341.59
2023-03-11T21:44:48.020Z,99327.28
2023-03-11T21:47:15.167Z,99337.84
2023-03-11T21:49:42.017Z,99334.66
2023-03-11T21:52:12.182Z,99339.97
2023-03-11T21:54:38.991Z,99341.88
2023-03-11T21:57:05.940Z,99344.81
2023-03-11T21:59:32.836Z,99351.38
2023-03-11T22:02:03.250Z,99346.25
2023-03-11T22:04:31.903Z,99350.50
2023-03-11T22:06:59.404Z,99349.13
2023-03-11T22:09:26.921Z,99342.22
2023-03-11T22:14:26.949Z,99359.44
2023-03-11T22:16:54.050Z,99349.00
2023-03-11T22:19:21.154Z,99357.22
2023-03-11T22:21:49.355Z,99345.81
2023-03-11T22:24:16.441Z,99349.72
2023-03-11T22:26:43.158Z,99343.31
2023-03-11T22:29:12.983Z,99347.50
2023-03-11T22:31:40.343Z,99351.41
2023-03-11T22:34:07.150Z,99347.22
2023-03-11T22:36:34.061Z,99355.44
2023-03-11T22:39:03.388Z,99347.78
2023-03-11T22:41:30.783Z,99353.34
2023-03-11T22:46:24.194Z,99349.44
2023-03-11T22:48:50.960Z,99354.16
2023-03-11T22:51:17.841Z,99366.66
2023-03-11T22:53:45.085Z,99364.59
2023-03-11T22:56:15.558Z,99370.28
2023-03-11T22:58:44.146Z,99363.19
2023-03-11T23:01:11.621Z,99360.28
2023-03-11T23:03:39.011Z,99360.13
2023-03-11T23:06:09.533Z,99363.31
2023-03-11T23:08:36.983Z,99370.28
2023-03-11T23:11:06.470Z,99369.31
2023-03-11T23:13:36.002Z,99365.00
2023-03-11T23:16:04.862Z,99372.91
2023-03-11T23:18:32.636Z,99371.13
2023-03-11T23:20:59.598Z,99367.50
2023-03-11T23:23:26.451Z,99372.63
2023-03-11T23:25:53.560Z,99374.97
2023-03-11T23:28:20.638Z,99386.38
2023-03-11T23:30:47.493Z,99368.84
2023-03-11T23:33:14.308Z,99381.34
2023-03-11T23:35:42.351Z,99378.00
2023-03-11T23:38:10.232Z,99388.34
2023-03-11T23:40:36.921Z,99381.66
2023-03-11T23:43:24.510Z,99391.09
2023-03-11T23:45:51.841Z,99386.69
2023-03-11T23:48:19.462Z,99391.09
2023-03-11T23:50:48.002Z,99395.25
2023-03-11T23:53:16.301Z,99401.72
2023-03-11T23:55:43.184Z,99396.00
2023-03-11T23:58:10.694Z,99389.13
